Time;durP1;ratioP1;P1;durP2;ratioP2;P2;SDS_P1;SDS_P2;PMS_P1;PMS_P2;Temp;Humidity;BMP_temperature;BMP_pressure;BME280_temperature;BME280_humidity;BME280_pressure;Samples;Min_cycle;Max_cycle;Signal;HPM_P1;HPM_P2
2023/07/27 00:01:19;;;;;;;;;;;;;;;;;;6169492;23;19955;-84
2023/07/27 00:03:45;;;;;;;;;;;;;;;;;;6147389;23;19974;-85
2023/07/27 00:06:14;;;;;;;;;;;;;;;;;;6146483;23;20339;-84
2023/07/27 00:08:40;;;;;;;;;;;;;;;;;;6146942;23;19920;-85
2023/07/27 00:11:06;;;;;;;;;;;;;;;;;;6169441;23;19996;-85
2023/07/27 00:13:32;;;;;;;;;;;;;;;;;;6148675;23;19974;-85
2023/07/27 00:15:58;;;;;;;;;;;;;;;;;;6174688;23;19916;-84
2023/07/27 00:18:24;;;;;;;;;;;;;;;;;;6171346;23;19920;-84
2023/07/27 00:20:53;;;;;;;;;;;;;;;;;;6151030;23;19928;-84
2023/07/27 00:23:19;;;;;;;;;;;;;;;;;;6143311;23;20403;-84
2023/07/27 00:25:45;;;;;;;;;;;;;;;;;;6146052;23;20127;-85
2023/07/27 00:28:11;;;;;;;;;;;;;;;;;;6143885;23;19926;-84
2023/07/27 00:30:37;;;;;;;;;;;;;;;;;;6147535;23;20256;-85
2023/07/27 00:33:05;;;;;;;;;;;;;;;;;;6149183;23;19972;-85
2023/07/27 00:35:31;;;;;;;;;;;;;;;;;;6172661;23;19927;-85
2023/07/27 00:37:57;;;;;;;;;;;;;;;;;;6147440;23;19991;-84
2023/07/27 00:40:23;;;;;;;;;;;;;;;;;;6168676;23;20510;-85
2023/07/27 00:42:52;;;;;;;;;;;;;;;;;;6146792;23;19970;-85
2023/07/27 00:45:21;;;;;;;;;;;;;;;;;;6142249;23;19931;-85
2023/07/27 00:47:47;;;;;;;;;;;;;;;;;;6172509;23;19974;-85
2023/07/27 00:50:13;;;;;;;;;;;;;;;;;;6170213;23;20428;-85
2023/07/27 00:52:40;;;;;;;;;;;;;;;;;;6197549;23;19966;-85
2023/07/27 00:55:06;;;;;;;;;;;;;;;;;;6166773;23;19946;-84
2023/07/27 00:57:32;;;;;;;;;;;;;;;;;;6168466;23;19919;-84
2023/07/27 00:59:58;;;;;;;;;;;;;;;;;;6146066;23;20329;-85
2023/07/27 01:02:24;;;;;;;;;;;;;;;;;;6167100;23;19920;-86
2023/07/27 01:04:49;;;;;;;;;;;;;;;;;;6195783;23;19920;-85
2023/07/27 01:07:15;;;;;;;;;;;;;;;;;;6142928;23;19924;-85
2023/07/27 01:09:41;;;;;;;;;;;;;;;;;;6145130;23;19919;-85
2023/07/27 01:12:07;;;;;;;;;;;;;;;;;;6165194;23;20240;-85
2023/07/27 01:14:34;;;;;;;;;;;;;;;;;;6169972;23;19916;-85
2023/07/27 01:17:00;;;;;;;;;;;;;;;;;;6170424;23;19995;-85
2023/07/27 01:19:26;;;;;;;;;;;;;;;;;;6169759;23;20345;-86
2023/07/27 01:21:52;;;;;;;;;;;;;;;;;;6172827;23;20015;-85
2023/07/27 01:24:19;;;;;;;;;;;;;;;;;;6143391;23;19991;-86
2023/07/27 01:26:45;;;;;;;;;;;;;;;;;;6169364;23;19976;-85
2023/07/27 01:29:10;;;;;;;;;;;;;;;;;;6168224;23;19916;-85
2023/07/27 01:31:41;;;;;;;;;;;;;;;;;;6145801;23;20019;-85
2023/07/27 01:34:07;;;;;;;;;;;;;;;;;;6142146;23;19924;-85
2023/07/27 01:36:34;;;;;;;;;;;;;;;;;;6144559;23;19986;-85
2023/07/27 01:39:02;;;;;;;;;;;;;;;;;;6169770;23;20466;-85
2023/07/27 01:41:31;;;;;;;;;;;;;;;;;;6169556;23;20368;-85
2023/07/27 01:43:57;;;;;;;;;;;;;;;;;;6167565;23;19920;-85
2023/07/27 01:46:23;;;;;;;;;;;;;;;;;;6143529;23;20323;-85
2023/07/27 01:48:49;;;;;;;;;;;;;;;;;;6171102;23;19923;-85
2023/07/27 01:51:15;;;;;;;;;;;;;;;;;;6168330;23;20029;-85
2023/07/27 01:53:41;;;;;;;;;;;;;;;;;;6146302;23;19919;-85
2023/07/27 01:56:07;;;;;;;;;;;;;;;;;;6141405;23;19949;-85
2023/07/27 01:58:33;;;;;;;;;;;;;;;;;;6168288;23;20248;-86
2023/07/27 02:00:59;;;;;;;;;;;;;;;;;;6145509;23;19939;-86
2023/07/27 02:03:25;;;;;;;;;;;;;;;;;;6140664;23;20071;-85
2023/07/27 02:05:51;;;;;;;;;;;;;;;;;;6143989;23;20001;-86
2023/07/27 02:08:17;;;;;;;;;;;;;;;;;;6140702;23;19975;-85
2023/07/27 02:10:43;;;;;;;;;;;;;;;;;;6169871;23;19923;-86
2023/07/27 02:13:09;;;;;;;;;;;;;;;;;;6167616;23;20299;-86
2023/07/27 02:15:35;;;;;;;;;;;;;;;;;;6145091;23;19963;-86
2023/07/27 02:18:01;;;;;;;;;;;;;;;;;;6143956;23;19965;-86
2023/07/27 02:20:28;;;;;;;;;;;;;;;;;;6144120;23;20309;-85
2023/07/27 02:22:54;;;;;;;;;;;;;;;;;;6169085;23;20341;-85
2023/07/27 02:25:20;;;;;;;;;;;;;;;;;;6167960;23;19924;-85
2023/07/27 02:27:46;;;;;;;;;;;;;;;;;;6170350;23;19920;-85
2023/07/27 02:30:12;;;;;;;;;;;;;;;;;;6169444;23;19924;-85
2023/07/27 02:32:38;;;;;;;;;;;;;;;;;;6143799;23;20328;-86
2023/07/27 02:35:04;;;;;;;;;;;;;;;;;;6141815;23;19920;-85
2023/07/27 02:37:30;;;;;;;;;;;;;;;;;;6145419;23;19920;-85
2023/07/27 02:39:56;;;;;;;;;;;;;;;;;;6147560;23;19927;-85
2023/07/27 02:42:22;;;;;;;;;;;;;;;;;;6142690;23;19919;-86
2023/07/27 02:44:51;;;;;;;;;;;;;;;;;;6145181;23;20333;-85
2023/07/27 02:47:17;;;;;;;;;;;;;;;;;;6194509;23;19920;-86
2023/07/27 02:49:43;;;;;;;;;;;;;;;;;;6171069;23;20383;-85
2023/07/27 02:52:09;;;;;;;;;;;;;;;;;;6168356;23;19920;-86
2023/07/27 02:54:35;;;;;;;;;;;;;;;;;;6147129;23;20393;-84
2023/07/27 02:57:01;;;;;;;;;;;;;;;;;;6172850;23;19919;-84
2023/07/27 02:59:27;;;;;;;;;;;;;;;;;;6169398;23;19947;-84
2023/07/27 03:01:53;;;;;;;;;;;;;;;;;;6171716;23;19998;-85
2023/07/27 03:04:19;;;;;;;;;;;;;;;;;;6169064;23;19986;-84
2023/07/27 03:06:45;;;;;;;;;;;;;;;;;;6170718;23;19987;-85
2023/07/27 03:09:11;;;;;;;;;;;;;;;;;;6168402;23;19926;-85
2023/07/27 03:11:40;;;;;;;;;;;;;;;;;;6171401;23;19919;-85
2023/07/27 03:14:06;;;;;;;;;;;;;;;;;;6143726;23;19931;-85
2023/07/27 03:16:32;;;;;;;;;;;;;;;;;;6147569;23;19927;-84
2023/07/27 03:18:58;;;;;;;;;;;;;;;;;;6172722;23;20006;-85
2023/07/27 03:21:24;;;;;;;;;;;;;;;;;;6145736;23;20373;-85
2023/07/27 03:23:50;;;;;;;;;;;;;;;;;;6147630;23;19920;-85
2023/07/27 03:26:16;;;;;;;;;;;;;;;;;;6147269;23;20006;-85
2023/07/27 03:28:42;;;;;;;;;;;;;;;;;;6174254;23;19935;-84
2023/07/27 03:31:08;;;;;;;;;;;;;;;;;;6169876;23;19919;-85
2023/07/27 03:33:34;;;;;;;;;;;;;;;;;;6147602;23;20474;-85
2023/07/27 03:36:00;;;;;;;;;;;;;;;;;;6147910;23;19916;-85
2023/07/27 03:38:26;;;;;;;;;;;;;;;;;;6143085;23;20419;-85
2023/07/27 03:40:52;;;;;;;;;;;;;;;;;;6144377;23;20003;-85
2023/07/27 03:43:18;;;;;;;;;;;;;;;;;;6139730;23;20223;-85
2023/07/27 03:45:44;;;;;;;;;;;;;;;;;;6169058;23;20420;-85
2023/07/27 03:48:10;;;;;;;;;;;;;;;;;;6140012;23;20333;-85
2023/07/27 03:50:36;;;;;;;;;;;;;;;;;;6168311;23;20031;-85
2023/07/27 03:56:01;;;;;;;;;;;;;;;;;;6166362;23;19970;-86
2023/07/27 03:58:28;;;;;;;;;;;;;;;;;;6142525;23;20007;-86
2023/07/27 04:00:54;;;;;;;;;;;;;;;;;;6147940;23;19946;-86
2023/07/27 04:03:20;;;;;;;;;;;;;;;;;;6169420;23;20356;-87
2023/07/27 04:05:46;;;;;;;;;;;;;;;;;;6146748;23;19924;-87
2023/07/27 04:08:12;;;;;;;;;;;;;;;;;;6168024;23;19928;-86
2023/07/27 04:10:38;;;;;;;;;;;;;;;;;;6169997;23;19919;-87
2023/07/27 04:13:04;;;;;;;;;;;;;;;;;;6144733;23;19920;-87
2023/07/27 04:18:46;;;;;;;;;;;;;;;;;;6168188;23;19998;-88
2023/07/27 04:21:12;;;;;;;;;;;;;;;;;;6141185;23;19924;-88
2023/07/27 04:23:53;;;;;;;;;;;;;;;;;;6174574;23;20363;-89
2023/07/27 04:26:34;;;;;;;;;;;;;;;;;;6150428;23;20259;-88
2023/07/27 04:29:10;;;;;;;;;;;;;;;;;;6145011;23;19920;-88
2023/07/27 04:31:41;;;;;;;;;;;;;;;;;;6151467;23;19922;-88
2023/07/27 04:34:13;;;;;;;;;;;;;;;;;;6145113;23;20165;-87
2023/07/27 04:36:47;;;;;;;;;;;;;;;;;;6147111;23;20346;-88
2023/07/27 04:39:20;;;;;;;;;;;;;;;;;;6144560;23;19919;-88
2023/07/27 04:41:49;;;;;;;;;;;;;;;;;;6171839;23;19919;-88
2023/07/27 04:44:18;;;;;;;;;;;;;;;;;;6143434;23;19974;-88
2023/07/27 04:46:44;;;;;;;;;;;;;;;;;;6145693;23;19920;-88
2023/07/27 04:49:13;;;;;;;;;;;;;;;;;;6169862;23;20383;-88
2023/07/27 04:51:42;;;;;;;;;;;;;;;;;;6147608;23;20416;-88
2023/07/27 04:54:11;;;;;;;;;;;;;;;;;;6141854;23;19973;-87
2023/07/27 04:56:39;;;;;;;;;;;;;;;;;;6143419;23;19919;-87
2023/07/27 04:59:08;;;;;;;;;;;;;;;;;;6142038;23;20019;-87
2023/07/27 05:01:34;;;;;;;;;;;;;;;;;;6167660;23;19920;-87
2023/07/27 05:04:00;;;;;;;;;;;;;;;;;;6145318;23;20357;-87
2023/07/27 05:06:29;;;;;;;;;;;;;;;;;;6143257;23;20028;-87
2023/07/27 05:08:55;;;;;;;;;;;;;;;;;;6148593;23;19920;-88
2023/07/27 05:11:21;;;;;;;;;;;;;;;;;;6143535;23;19927;-87
2023/07/27 05:13:52;;;;;;;;;;;;;;;;;;6146086;23;19916;-87
2023/07/27 05:16:18;;;;;;;;;;;;;;;;;;6141917;23;19975;-87
2023/07/27 05:18:44;;;;;;;;;;;;;;;;;;6146943;23;19924;-87
2023/07/27 05:21:18;;;;;;;;;;;;;;;;;;6143766;23;19926;-87
2023/07/27 05:23:49;;;;;;;;;;;;;;;;;;6146166;23;20321;-87
2023/07/27 05:26:15;;;;;;;;;;;;;;;;;;6141475;23;20367;-87
2023/07/27 05:28:44;;;;;;;;;;;;;;;;;;6145213;23;19991;-87
2023/07/27 05:31:10;;;;;;;;;;;;;;;;;;6144615;23;19920;-87
2023/07/27 05:33:39;;;;;;;;;;;;;;;;;;6144364;23;20009;-87
2023/07/27 05:36:05;;;;;;;;;;;;;;;;;;6144392;23;19923;-87
2023/07/27 05:38:33;;;;;;;;;;;;;;;;;;6164783;23;20372;-87
2023/07/27 05:41:00;;;;;;;;;;;;;;;;;;6147251;23;19951;-87
2023/07/27 05:43:26;;;;;;;;;;;;;;;;;;6171766;23;19966;-86
2023/07/27 05:45:52;;;;;;;;;;;;;;;;;;6174575;23;19919;-86
2023/07/27 05:48:18;;;;;;;;;;;;;;;;;;6148416;23;19994;-86
2023/07/27 05:50:44;;;;;;;;;;;;;;;;;;6175494;23;19919;-86
2023/07/27 05:59:06;;;;;;;;;;;;;;;;;;6172069;23;19920;-87
2023/07/27 06:01:32;;;;;;;;;;;;;;;;;;6151461;23;19919;-86
2023/07/27 06:04:00;;;;;;;;;;;;;;;;;;6176910;23;20417;-86
2023/07/27 06:06:26;;;;;;;;;;;;;;;;;;6149543;23;20447;-86
2023/07/27 06:08:52;;;;;;;;;;;;;;;;;;6177114;23;19954;-86
2023/07/27 06:11:18;;;;;;;;;;;;;;;;;;6176274;23;20253;-86
2023/07/27 06:16:32;;;;;;;;;;;;;;;;;;6177459;23;20405;-86
2023/07/27 06:18:58;;;;;;;;;;;;;;;;;;6154236;23;19919;-86
2023/07/27 06:21:24;;;;;;;;;;;;;;;;;;6176881;23;20293;-86
2023/07/27 06:23:50;;;;;;;;;;;;;;;;;;6180727;23;20246;-86
2023/07/27 06:26:19;;;;;;;;;;;;;;;;;;6153310;23;19924;-86
2023/07/27 06:28:45;;;;;;;;;;;;;;;;;;6152669;23;19965;-86
2023/07/27 06:31:11;;;;;;;;;;;;;;;;;;6175107;23;20343;-86
2023/07/27 06:33:37;;;;;;;;;;;;;;;;;;6178003;23;19995;-86
2023/07/27 06:36:06;;;;;;;;;;;;;;;;;;6154912;23;19943;-87
2023/07/27 06:38:36;;;;;;;;;;;;;;;;;;6156769;23;19931;-87
2023/07/27 06:41:02;;;;;;;;;;;;;;;;;;6156054;23;20350;-87
2023/07/27 06:46:47;;;;;;;;;;;;;;;;;;6117124;23;19924;-88
2023/07/27 06:52:14;;;;;;;;;;;;;;;;;;6175550;23;19916;-88
2023/07/27 06:54:40;;;;;;;;;;;;;;;;;;6152063;23;19927;-87
2023/07/27 06:57:27;;;;;;;;;;;;;;;;;;6151698;23;19926;-87
2023/07/27 07:00:02;;;;;;;;;;;;;;;;;;6155704;23;20607;-88
2023/07/27 07:02:28;;;;;;;;;;;;;;;;;;6149967;23;19916;-87
2023/07/27 07:07:40;;;;;;;;;;;;;;;;;;6178587;23;20502;-87
2023/07/27 07:10:07;;;;;;;;;;;;;;;;;;6152092;23;19922;-87
2023/07/27 07:12:39;;;;;;;;;;;;;;;;;;6153375;23;19920;-87
2023/07/27 07:15:05;;;;;;;;;;;;;;;;;;6152155;23;19923;-88
2023/07/27 07:17:31;;;;;;;;;;;;;;;;;;6155016;23;19916;-88
2023/07/27 07:19:58;;;;;;;;;;;;;;;;;;6153274;23;19920;-87
2023/07/27 07:22:24;;;;;;;;;;;;;;;;;;6176605;23;20365;-88
2023/07/27 07:24:50;;;;;;;;;;;;;;;;;;6153637;23;19919;-87
2023/07/27 07:27:16;;;;;;;;;;;;;;;;;;6148572;23;19924;-88
2023/07/27 07:29:51;;;;;;;;;;;;;;;;;;6178771;23;19942;-87
2023/07/27 07:32:17;;;;;;;;;;;;;;;;;;6149818;23;20226;-87
2023/07/27 07:34:43;;;;;;;;;;;;;;;;;;6152729;23;19920;-88
2023/07/27 07:37:10;;;;;;;;;;;;;;;;;;6152168;23;19916;-87
2023/07/27 07:39:38;;;;;;;;;;;;;;;;;;6176480;23;20345;-88
2023/07/27 07:42:04;;;;;;;;;;;;;;;;;;6151546;23;19920;-88
2023/07/27 07:44:33;;;;;;;;;;;;;;;;;;6177352;23;19919;-87
2023/07/27 07:47:01;;;;;;;;;;;;;;;;;;6178066;23;19930;-87
2023/07/27 07:49:27;;;;;;;;;;;;;;;;;;6149968;23;19932;-87
2023/07/27 07:51:53;;;;;;;;;;;;;;;;;;6154166;23;19920;-87
2023/07/27 07:54:26;;;;;;;;;;;;;;;;;;6152133;23;20070;-87
2023/07/27 07:56:52;;;;;;;;;;;;;;;;;;6152715;23;19916;-87
2023/07/27 07:59:18;;;;;;;;;;;;;;;;;;6176413;23;19927;-87
2023/07/27 08:01:44;;;;;;;;;;;;;;;;;;6151854;23;19920;-87
2023/07/27 08:04:10;;;;;;;;;;;;;;;;;;6174934;23;19923;-87
2023/07/27 08:06:36;;;;;;;;;;;;;;;;;;6156446;23;20231;-88
2023/07/27 08:09:05;;;;;;;;;;;;;;;;;;6156293;23;19916;-88
2023/07/27 08:11:31;;;;;;;;;;;;;;;;;;6153560;23;20415;-88
2023/07/27 08:14:01;;;;;;;;;;;;;;;;;;6154528;23;19916;-88
2023/07/27 08:16:30;;;;;;;;;;;;;;;;;;6150417;23;19923;-88
2023/07/27 08:18:56;;;;;;;;;;;;;;;;;;6154507;23;19920;-88
2023/07/27 08:21:30;;;;;;;;;;;;;;;;;;6150756;23;20253;-90
2023/07/27 08:27:04;;;;;;;;;;;;;;;;;;6168998;23;19924;-89
2023/07/27 08:29:52;;;;;;;;;;;;;;;;;;;;;
2023/07/27 08:32:42;;;;;;;;;;;;;;;;;;6190663;23;19976;-87
2023/07/27 08:35:08;;;;;;;;;;;;;;;;;;6149520;23;19920;-87
2023/07/27 08:40:34;;;;;;;;;;;;;;;;;;6163799;23;19920;-87
2023/07/27 08:43:00;;;;;;;;;;;;;;;;;;6152138;23;20281;-87
2023/07/27 08:45:26;;;;;;;;;;;;;;;;;;6174048;23;20002;-87
2023/07/27 08:47:55;;;;;;;;;;;;;;;;;;6153223;23;19991;-87
2023/07/27 08:50:21;;;;;;;;;;;;;;;;;;6176493;23;19927;-87
2023/07/27 08:52:47;;;;;;;;;;;;;;;;;;6153785;23;19923;-87
2023/07/27 08:55:13;;;;;;;;;;;;;;;;;;6174426;23;19916;-87
2023/07/27 08:57:42;;;;;;;;;;;;;;;;;;6153019;23;20329;-87
2023/07/27 09:00:11;;;;;;;;;;;;;;;;;;6149810;23;19962;-87
2023/07/27 09:02:38;;;;;;;;;;;;;;;;;;6177950;23;20464;-87
2023/07/27 09:05:04;;;;;;;;;;;;;;;;;;6151251;23;20321;-87
2023/07/27 09:07:30;;;;;;;;;;;;;;;;;;6155113;23;19927;-87
2023/07/27 09:09:56;;;;;;;;;;;;;;;;;;6194266;23;20119;-87
2023/07/27 09:12:24;;;;;;;;;;;;;;;;;;6201388;23;19920;-87
2023/07/27 09:14:50;;;;;;;;;;;;;;;;;;6151930;23;20309;-86
2023/07/27 09:17:16;;;;;;;;;;;;;;;;;;6175619;23;19985;-87
2023/07/27 09:19:42;;;;;;;;;;;;;;;;;;6152754;23;19924;-87
2023/07/27 09:22:10;;;;;;;;;;;;;;;;;;6150253;23;19927;-88
2023/07/27 09:24:36;;;;;;;;;;;;;;;;;;6151454;23;19978;-87
2023/07/27 09:27:05;;;;;;;;;;;;;;;;;;6154421;23;19928;-87
2023/07/27 09:29:44;;;;;;;;;;;;;;;;;;6214104;23;19923;-88
2023/07/27 09:32:10;;;;;;;;;;;;;;;;;;6149851;23;20478;-88
2023/07/27 09:34:39;;;;;;;;;;;;;;;;;;6153517;23;19931;-87
2023/07/27 09:37:07;;;;;;;;;;;;;;;;;;6176121;23;19998;-88
2023/07/27 09:39:34;;;;;;;;;;;;;;;;;;6152496;23;19990;-88
2023/07/27 09:42:03;;;;;;;;;;;;;;;;;;6175316;23;19939;-87
2023/07/27 09:44:32;;;;;;;;;;;;;;;;;;6174088;23;19920;-88
2023/07/27 09:46:58;;;;;;;;;;;;;;;;;;6175649;23;20217;-87
2023/07/27 09:49:24;;;;;;;;;;;;;;;;;;6172820;23;20308;-88
2023/07/27 09:51:50;;;;;;;;;;;;;;;;;;6174751;23;20062;-88
2023/07/27 09:54:18;;;;;;;;;;;;;;;;;;6148046;23;19951;-88
2023/07/27 09:56:44;;;;;;;;;;;;;;;;;;6176622;23;19927;-87
2023/07/27 09:59:16;;;;;;;;;;;;;;;;;;6148165;23;19920;-88
2023/07/27 10:01:42;;;;;;;;;;;;;;;;;;6149578;23;19916;-88
2023/07/27 10:04:08;;;;;;;;;;;;;;;;;;6150657;23;20267;-88
2023/07/27 10:06:34;;;;;;;;;;;;;;;;;;6152833;23;19919;-87
2023/07/27 10:09:00;;;;;;;;;;;;;;;;;;6152831;23;19920;-87
2023/07/27 10:11:26;;;;;;;;;;;;;;;;;;6173107;23;19922;-87
2023/07/27 10:13:57;;;;;;;;;;;;;;;;;;6153692;23;19966;-87
2023/07/27 10:16:25;;;;;;;;;;;;;;;;;;6146937;23;19926;-87
2023/07/27 10:18:52;;;;;;;;;;;;;;;;;;6176316;23;19927;-87
2023/07/27 10:21:18;;;;;;;;;;;;;;;;;;6175480;23;19920;-88
2023/07/27 10:24:02;;;;;;;;;;;;;;;;;;6175670;23;19920;-87
2023/07/27 10:26:28;;;;;;;;;;;;;;;;;;6149814;23;20214;-87
2023/07/27 10:28:54;;;;;;;;;;;;;;;;;;6151841;23;20326;-87
2023/07/27 10:31:20;;;;;;;;;;;;;;;;;;6172125;23;19927;-87
2023/07/27 10:33:46;;;;;;;;;;;;;;;;;;6174942;23;20253;-88
2023/07/27 10:36:13;;;;;;;;;;;;;;;;;;6148747;23;19927;-88
2023/07/27 10:38:42;;;;;;;;;;;;;;;;;;6176057;23;19990;-88
2023/07/27 10:41:08;;;;;;;;;;;;;;;;;;6149059;23;19919;-88
2023/07/27 10:43:34;;;;;;;;;;;;;;;;;;6152137;23;20388;-87
2023/07/27 10:46:05;;;;;;;;;;;;;;;;;;6147691;23;19998;-88
2023/07/27 10:48:34;;;;;;;;;;;;;;;;;;6147696;23;20299;-88
2023/07/27 10:51:02;;;;;;;;;;;;;;;;;;6172335;23;19927;-88
2023/07/27 10:53:31;;;;;;;;;;;;;;;;;;6144149;23;19924;-88
2023/07/27 10:56:11;;;;;;;;;;;;;;;;;;;;;
2023/07/27 11:01:41;;;;;;;;;;;;;;;;;;6157286;23;20302;-88
2023/07/27 11:07:19;;;;;;;;;;;;;;;;;;;;;
2023/07/27 11:09:58;;;;;;;;;;;;;;;;;;;;;
2023/07/27 11:12:24;;;;;;;;;;;;;;;;;;6169515;23;20250;-88
2023/07/27 11:14:55;;;;;;;;;;;;;;;;;;6170022;23;19969;-88
2023/07/27 11:17:34;;;;;;;;;;;;;;;;;;;;;
2023/07/27 11:20:02;;;;;;;;;;;;;;;;;;6171791;23;19920;-88
2023/07/27 11:22:31;;;;;;;;;;;;;;;;;;6145430;23;19997;-88
2023/07/27 11:27:51;;;;;;;;;;;;;;;;;;6197916;23;19987;-89
2023/07/27 11:30:19;;;;;;;;;;;;;;;;;;6106995;23;20254;-89
2023/07/27 11:32:56;;;;;;;;;;;;;;;;;;6086427;23;19948;-89
2023/07/27 11:35:48;;;;;;;;;;;;;;;;;;;;;
2023/07/27 11:41:37;;;;;;;;;;;;;;;;;;6143326;23;20395;-89
2023/07/27 11:44:06;;;;;;;;;;;;;;;;;;6084645;23;19920;-89
2023/07/27 11:46:32;;;;;;;;;;;;;;;;;;6083275;23;19944;-89
2023/07/27 11:48:58;;;;;;;;;;;;;;;;;;6083952;23;19968;-88
2023/07/27 11:51:27;;;;;;;;;;;;;;;;;;6084189;23;20357;-88
2023/07/27 11:53:56;;;;;;;;;;;;;;;;;;6082615;23;19943;-88
2023/07/27 11:56:24;;;;;;;;;;;;;;;;;;6079887;23;19920;-88
2023/07/27 12:05:04;;;;;;;;;;;;;;;;;;6144037;23;19920;-88
2023/07/27 12:07:36;;;;;;;;;;;;;;;;;;6105620;23;19995;-89
2023/07/27 12:10:02;;;;;;;;;;;;;;;;;;6106229;23;19997;-89
2023/07/27 12:12:28;;;;;;;;;;;;;;;;;;6120960;23;19920;-88
2023/07/27 12:14:55;;;;;;;;;;;;;;;;;;6168625;23;19920;-88
2023/07/27 12:17:24;;;;;;;;;;;;;;;;;;6123185;23;19958;-89
2023/07/27 12:19:50;;;;;;;;;;;;;;;;;;6143692;23;19995;-88
2023/07/27 12:22:21;;;;;;;;;;;;;;;;;;6139898;23;20301;-88
2023/07/27 12:24:56;;;;;;;;;;;;;;;;;;6146169;23;20434;-89
2023/07/27 12:27:22;;;;;;;;;;;;;;;;;;6142240;23;19924;-88
2023/07/27 12:29:58;;;;;;;;;;;;;;;;;;6146313;23;20148;-88
2023/07/27 12:32:24;;;;;;;;;;;;;;;;;;6143729;23;20316;-89
2023/07/27 12:35:24;;;;;;;;;;;;;;;;;;6147748;23;19915;-89
2023/07/27 12:44:16;;;;;;;;;;;;;;;;;;6158724;23;19966;-90
2023/07/27 12:50:17;;;;;;;;;;;;;;;;;;6129981;23;19920;-89
2023/07/27 12:52:53;;;;;;;;;;;;;;;;;;6146699;23;19986;-89
2023/07/27 12:58:23;;;;;;;;;;;;;;;;;;6205829;23;19919;-89
2023/07/27 13:01:01;;;;;;;;;;;;;;;;;;6140264;23;20356;-89
2023/07/27 13:03:37;;;;;;;;;;;;;;;;;;6172416;23;20188;-89
2023/07/27 13:09:13;;;;;;;;;;;;;;;;;;6131321;23;19938;-89
2023/07/27 13:11:47;;;;;;;;;;;;;;;;;;6084853;23;19921;-89
2023/07/27 13:14:28;;;;;;;;;;;;;;;;;;6086026;23;19920;-89
2023/07/27 13:19:51;;;;;;;;;;;;;;;;;;6097984;23;20364;-90
2023/07/27 13:22:23;;;;;;;;;;;;;;;;;;6050472;23;19921;-90
2023/07/27 13:25:02;;;;;;;;;;;;;;;;;;;;;
2023/07/27 13:30:18;;;;;;;;;;;;;;;;;;5963199;23;19929;-89
2023/07/27 13:32:57;;;;;;;;;;;;;;;;;;;;;
2023/07/27 13:38:26;;;;;;;;;;;;;;;;;;6134380;23;20382;-89
2023/07/27 13:41:05;;;;;;;;;;;;;;;;;;6135674;23;19920;-90
2023/07/27 13:43:58;;;;;;;;;;;;;;;;;;6140836;23;19920;-89
2023/07/27 14:08:59;;;;;;;;;;;;;;;;;;;;;
2023/07/27 14:14:51;;;;;;;;;;;;;;;;;;6026928;23;19925;-89
2023/07/27 14:18:00;;;;;;;;;;;;;;;;;;6103886;23;20208;-89
2023/07/27 14:23:43;;;;;;;;;;;;;;;;;;6105379;23;19928;-90
2023/07/27 14:29:28;;;;;;;;;;;;;;;;;;6077071;23;19924;-89
2023/07/27 14:35:23;;;;;;;;;;;;;;;;;;6161736;23;19924;-89
2023/07/27 14:38:07;;;;;;;;;;;;;;;;;;6146638;23;20444;-89
2023/07/27 14:50:12;;;;;;;;;;;;;;;;;;6130793;23;19960;-91
2023/07/27 14:52:51;;;;;;;;;;;;;;;;;;;;;
2023/07/27 14:55:25;;;;;;;;;;;;;;;;;;6129531;23;20510;-90
2023/07/27 14:58:10;;;;;;;;;;;;;;;;;;;;;
2023/07/27 15:00:42;;;;;;;;;;;;;;;;;;6170765;23;19931;-90
2023/07/27 15:06:15;;;;;;;;;;;;;;;;;;6140019;23;19920;-90
2023/07/27 15:08:44;;;;;;;;;;;;;;;;;;6146791;23;20287;-89
2023/07/27 15:11:16;;;;;;;;;;;;;;;;;;6142136;23;20332;-90
2023/07/27 15:13:56;;;;;;;;;;;;;;;;;;6173911;23;19915;-91
2023/07/27 15:16:46;;;;;;;;;;;;;;;;;;6143815;23;20665;-90
2023/07/27 15:19:11;;;;;;;;;;;;;;;;;;6168087;23;19998;-90
2023/07/27 15:21:39;;;;;;;;;;;;;;;;;;6170499;23;20243;-90
2023/07/27 15:29:56;;;;;;;;;;;;;;;;;;6175160;23;19974;-90
2023/07/27 15:32:36;;;;;;;;;;;;;;;;;;6142726;23;19919;-90
2023/07/27 15:35:20;;;;;;;;;;;;;;;;;;6149069;23;19926;-88
2023/07/27 15:38:26;;;;;;;;;;;;;;;;;;6119246;23;20260;-90
2023/07/27 15:41:00;;;;;;;;;;;;;;;;;;6138251;23;19920;-90
2023/07/27 15:44:03;;;;;;;;;;;;;;;;;;6183603;23;20353;-89
2023/07/27 15:47:03;;;;;;;;;;;;;;;;;;;;;
2023/07/27 15:49:24;;;;;;;;;;;;;;;;;;6103105;23;20254;-90
2023/07/27 15:54:53;;;;;;;;;;;;;;;;;;;;;
2023/07/27 16:00:05;;;;;;;;;;;;;;;;;;6130662;23;20405;-89
2023/07/27 16:02:34;;;;;;;;;;;;;;;;;;6107338;23;20307;-89
2023/07/27 16:05:18;;;;;;;;;;;;;;;;;;6108957;23;19943;-91
2023/07/27 16:07:46;;;;;;;;;;;;;;;;;;6107428;23;20365;-90
2023/07/27 16:10:18;;;;;;;;;;;;;;;;;;6103074;23;19952;-89
2023/07/27 16:13:00;;;;;;;;;;;;;;;;;;6131516;23;19920;-89
2023/07/27 16:16:12;;;;;;;;;;;;;;;;;;;;;
2023/07/27 16:18:34;;;;;;;;;;;;;;;;;;;;;
2023/07/27 16:21:23;;;;;;;;;;;;;;;;;;;;;
2023/07/27 16:24:08;;;;;;;;;;;;;;;;;;;;;
2023/07/27 16:27:14;;;;;;;;;;;;;;;;;;6177951;23;19931;-90
2023/07/27 16:29:48;;;;;;;;;;;;;;;;;;6115191;23;19967;-90
2023/07/27 16:35:21;;;;;;;;;;;;;;;;;;6163351;23;19962;-90
2023/07/27 16:38:13;;;;;;;;;;;;;;;;;;;;;
2023/07/27 16:43:34;;;;;;;;;;;;;;;;;;6129283;23;19927;-91
2023/07/27 16:55:41;;;;;;;;;;;;;;;;;;5897411;23;20002;-90
2023/07/27 16:58:10;;;;;;;;;;;;;;;;;;5982007;23;19926;-90
2023/07/27 17:50:47;;;;;;;;;;;;;;;;;;6221750;22;19923;-85
2023/07/27 17:53:13;;;;;;;;;;;;;;;;;;6196940;23;20431;-85
2023/07/27 17:55:42;;;;;;;;;;;;;;;;;;6169569;23;20002;-85
2023/07/27 17:58:13;;;;;;;;;;;;;;;;;;6168052;23;19973;-85
2023/07/27 18:00:39;;;;;;;;;;;;;;;;;;6167568;23;19958;-84
2023/07/27 18:03:05;;;;;;;;;;;;;;;;;;6167455;23;19958;-86
2023/07/27 18:05:31;;;;;;;;;;;;;;;;;;6171544;23;19920;-84
2023/07/27 23:25:51;;;;;;;;;;;;;;;;;;6222791;22;19923;-84
2023/07/27 23:28:19;;;;;;;;;;;;;;;;;;6174803;23;19920;-84
2023/07/27 23:30:45;;;;;;;;;;;;;;;;;;6176843;23;19920;-84
2023/07/27 23:33:11;;;;;;;;;;;;;;;;;;6176470;23;19998;-84
2023/07/27 23:35:37;;;;;;;;;;;;;;;;;;6178827;23;19931;-84
2023/07/27 23:38:09;;;;;;;;;;;;;;;;;;6178144;23;20311;-84
2023/07/27 23:40:38;;;;;;;;;;;;;;;;;;6178951;23;19920;-84
2023/07/27 23:43:07;;;;;;;;;;;;;;;;;;6178528;23;19920;-84
2023/07/27 23:45:33;;;;;;;;;;;;;;;;;;6175144;23;20366;-84
2023/07/27 23:47:59;;;;;;;;;;;;;;;;;;6200213;23;20329;-84
2023/07/27 23:50:31;;;;;;;;;;;;;;;;;;6175168;23;20389;-84
2023/07/27 23:52:59;;;;;;;;;;;;;;;;;;6178275;23;19919;-84
2023/07/27 23:55:28;;;;;;;;;;;;;;;;;;6177028;23;20295;-83
2023/07/27 23:57:56;;;;;;;;;;;;;;;;;;6180567;23;19923;-83
